sensor_id;sensor_type;location;lat;lon;timestamp;pressure;altitude;pressure_sealevel;temperature;humidity
75298;BME280;63896;45.990;18.688;2023-05-21T00:02:52;100683.66;;;14.42;96.15
75298;BME280;63896;45.990;18.688;2023-05-21T00:05:55;100679.59;;;14.40;95.86
75298;BME280;63896;45.990;18.688;2023-05-21T00:08:58;100665.97;;;14.29;96.49
75298;BME280;63896;45.990;18.688;2023-05-21T00:12:01;100669.91;;;14.15;96.97
75298;BME280;63896;45.990;18.688;2023-05-21T00:15:04;100684.63;;;14.06;98.00
75298;BME280;63896;45.990;18.688;2023-05-21T00:18:08;100680.47;;;14.10;98.27
75298;BME280;63896;45.990;18.688;2023-05-21T00:21:11;100683.81;;;14.06;97.82
75298;BME280;63896;45.990;18.688;2023-05-21T00:24:14;100683.44;;;14.02;99.10
75298;BME280;63896;45.990;18.688;2023-05-21T00:27:17;100687.97;;;14.02;98.83
75298;BME280;63896;45.990;18.688;2023-05-21T00:30:20;100681.25;;;13.99;99.28
75298;BME280;63896;45.990;18.688;2023-05-21T00:33:23;100682.53;;;13.97;99.82
75298;BME280;63896;45.990;18.688;2023-05-21T00:36:28;100673.03;;;14.01;98.87
75298;BME280;63896;45.990;18.688;2023-05-21T00:39:32;100668.25;;;13.91;99.22
75298;BME280;63896;45.990;18.688;2023-05-21T00:42:35;100674.53;;;13.97;98.96
75298;BME280;63896;45.990;18.688;2023-05-21T00:45:41;100666.97;;;13.82;98.99
75298;BME280;63896;45.990;18.688;2023-05-21T00:48:49;100657.66;;;13.73;99.94
75298;BME280;63896;45.990;18.688;2023-05-21T00:51:54;100658.59;;;13.67;100.00
75298;BME280;63896;45.990;18.688;2023-05-21T00:59:07;100660.06;;;13.63;100.00
75298;BME280;63896;45.990;18.688;2023-05-21T01:02:10;100654.50;;;13.64;100.00
75298;BME280;63896;45.990;18.688;2023-05-21T01:05:15;100648.91;;;13.54;100.00
75298;BME280;63896;45.990;18.688;2023-05-21T01:08:19;100649.94;;;13.53;100.00
75298;BME280;63896;45.990;18.688;2023-05-21T01:11:49;100650.75;;;13.54;100.00
75298;BME280;63896;45.990;18.688;2023-05-21T01:14:53;100649.91;;;13.42;100.00
75298;BME280;63896;45.990;18.688;2023-05-21T01:17:56;100645.03;;;13.39;100.00
75298;BME280;63896;45.990;18.688;2023-05-21T01:21:03;100654.16;;;13.31;100.00
75298;BME280;63896;45.990;18.688;2023-05-21T01:24:06;100650.34;;;13.39;100.00
75298;BME280;63896;45.990;18.688;2023-05-21T01:27:09;100647.91;;;13.37;100.00
75298;BME280;63896;45.990;18.688;2023-05-21T01:30:13;100658.81;;;13.35;100.00
75298;BME280;63896;45.990;18.688;2023-05-21T01:33:20;100655.72;;;13.50;100.00
75298;BME280;63896;45.990;18.688;2023-05-21T01:36:29;100657.94;;;13.53;100.00
75298;BME280;63896;45.990;18.688;2023-05-21T01:39:37;100659.50;;;13.72;98.43
75298;BME280;63896;45.990;18.688;2023-05-21T01:42:43;100653.38;;;13.83;97.29
75298;BME280;63896;45.990;18.688;2023-05-21T01:45:47;100657.78;;;13.78;97.56
75298;BME280;63896;45.990;18.688;2023-05-21T01:48:54;100663.25;;;13.83;97.21
75298;BME280;63896;45.990;18.688;2023-05-21T01:51:58;100656.16;;;13.77;97.19
75298;BME280;63896;45.990;18.688;2023-05-21T01:55:00;100657.31;;;13.69;98.08
75298;BME280;63896;45.990;18.688;2023-05-21T01:58:04;100651.56;;;13.54;98.46
75298;BME280;63896;45.990;18.688;2023-05-21T02:01:06;100658.75;;;13.54;98.55
75298;BME280;63896;45.990;18.688;2023-05-21T02:04:10;100647.88;;;13.55;98.55
75298;BME280;63896;45.990;18.688;2023-05-21T02:07:13;100649.69;;;13.43;98.89
75298;BME280;63896;45.990;18.688;2023-05-21T02:10:18;100649.41;;;13.33;99.30
75298;BME280;63896;45.990;18.688;2023-05-21T02:13:21;100640.69;;;13.26;99.73
75298;BME280;63896;45.990;18.688;2023-05-21T02:16:27;100651.44;;;13.19;99.66
75298;BME280;63896;45.990;18.688;2023-05-21T02:19:30;100650.09;;;13.10;99.87
75298;BME280;63896;45.990;18.688;2023-05-21T02:22:33;100644.03;;;13.03;100.00
75298;BME280;63896;45.990;18.688;2023-05-21T02:25:36;100651.44;;;13.01;100.00
75298;BME280;63896;45.990;18.688;2023-05-21T02:28:39;100651.19;;;13.03;100.00
75298;BME280;63896;45.990;18.688;2023-05-21T02:31:42;100652.00;;;13.03;100.00
75298;BME280;63896;45.990;18.688;2023-05-21T02:34:45;100652.16;;;13.08;100.00
75298;BME280;63896;45.990;18.688;2023-05-21T02:37:49;100659.44;;;13.19;100.00
75298;BME280;63896;45.990;18.688;2023-05-21T02:40:52;100659.63;;;13.18;100.00
75298;BME280;63896;45.990;18.688;2023-05-21T02:43:55;100650.53;;;13.07;100.00
75298;BME280;63896;45.990;18.688;2023-05-21T02:46:58;100660.09;;;12.97;100.00
75298;BME280;63896;45.990;18.688;2023-05-21T02:50:01;100657.28;;;12.92;100.00
75298;BME280;63896;45.990;18.688;2023-05-21T02:53:05;100656.91;;;12.88;100.00
75298;BME280;63896;45.990;18.688;2023-05-21T02:56:09;100653.94;;;12.96;100.00
75298;BME280;63896;45.990;18.688;2023-05-21T02:59:13;100644.97;;;12.90;100.00
75298;BME280;63896;45.990;18.688;2023-05-21T03:02:16;100644.84;;;12.85;100.00
75298;BME280;63896;45.990;18.688;2023-05-21T03:05:19;100652.47;;;12.82;100.00
75298;BME280;63896;45.990;18.688;2023-05-21T03:08:23;100650.31;;;12.72;100.00
75298;BME280;63896;45.990;18.688;2023-05-21T03:11:26;100653.19;;;12.71;100.00
75298;BME280;63896;45.990;18.688;2023-05-21T03:14:29;100653.34;;;12.76;100.00
75298;BME280;63896;45.990;18.688;2023-05-21T03:17:33;100655.81;;;12.77;100.00
75298;BME280;63896;45.990;18.688;2023-05-21T03:20:35;100652.69;;;12.80;100.00
75298;BME280;63896;45.990;18.688;2023-05-21T03:23:45;100651.06;;;12.79;100.00
75298;BME280;63896;45.990;18.688;2023-05-21T03:26:48;100646.75;;;12.78;100.00
75298;BME280;63896;45.990;18.688;2023-05-21T03:29:51;100647.06;;;12.88;100.00
75298;BME280;63896;45.990;18.688;2023-05-21T03:32:57;100642.69;;;12.94;100.00
75298;BME280;63896;45.990;18.688;2023-05-21T03:36:02;100645.94;;;12.96;100.00
75298;BME280;63896;45.990;18.688;2023-05-21T03:39:08;100652.47;;;13.00;100.00
75298;BME280;63896;45.990;18.688;2023-05-21T03:42:11;100658.47;;;13.14;100.00
75298;BME280;63896;45.990;18.688;2023-05-21T03:45:23;100667.56;;;13.24;100.00
75298;BME280;63896;45.990;18.688;2023-05-21T03:48:44;100661.69;;;13.34;100.00
75298;BME280;63896;45.990;18.688;2023-05-21T03:51:50;100661.75;;;13.46;100.00
75298;BME280;63896;45.990;18.688;2023-05-21T03:54:54;100667.31;;;13.56;100.00
75298;BME280;63896;45.990;18.688;2023-05-21T03:57:58;100671.78;;;13.62;100.00
75298;BME280;63896;45.990;18.688;2023-05-21T04:01:01;100670.16;;;13.72;100.00
75298;BME280;63896;45.990;18.688;2023-05-21T04:04:06;100669.03;;;13.80;100.00
75298;BME280;63896;45.990;18.688;2023-05-21T04:07:09;100679.38;;;13.88;99.53
75298;BME280;63896;45.990;18.688;2023-05-21T04:10:16;100675.44;;;14.02;98.99
75298;BME280;63896;45.990;18.688;2023-05-21T04:13:19;100673.63;;;14.14;98.02
75298;BME280;63896;45.990;18.688;2023-05-21T04:16:22;100681.63;;;14.26;96.81
75298;BME280;63896;45.990;18.688;2023-05-21T04:19:27;100678.16;;;14.25;96.61
75298;BME280;63896;45.990;18.688;2023-05-21T04:22:30;100672.25;;;14.23;96.81
75298;BME280;63896;45.990;18.688;2023-05-21T04:25:33;100683.59;;;14.19;97.65
75298;BME280;63896;45.990;18.688;2023-05-21T04:28:37;100685.59;;;14.23;97.04
75298;BME280;63896;45.990;18.688;2023-05-21T04:31:44;100690.84;;;14.53;95.93
75298;BME280;63896;45.990;18.688;2023-05-21T04:34:48;100679.47;;;14.69;95.46
75298;BME280;63896;45.990;18.688;2023-05-21T04:37:51;100687.69;;;14.79;94.69
75298;BME280;63896;45.990;18.688;2023-05-21T04:40:56;100687.13;;;14.77;94.02
75298;BME280;63896;45.990;18.688;2023-05-21T04:44:00;100689.09;;;14.82;94.08
75298;BME280;63896;45.990;18.688;2023-05-21T04:47:06;100691.53;;;14.84;94.19
75298;BME280;63896;45.990;18.688;2023-05-21T04:50:10;100696.41;;;14.87;93.49
75298;BME280;63896;45.990;18.688;2023-05-21T04:53:13;100694.88;;;14.91;93.60
75298;BME280;63896;45.990;18.688;2023-05-21T04:56:16;100698.69;;;14.95;93.37
75298;BME280;63896;45.990;18.688;2023-05-21T04:59:21;100701.59;;;15.05;92.75
75298;BME280;63896;45.990;18.688;2023-05-21T05:02:24;100702.16;;;15.18;92.13
75298;BME280;63896;45.990;18.688;2023-05-21T05:05:27;100707.34;;;15.37;90.84
75298;BME280;63896;45.990;18.688;2023-05-21T05:08:30;100701.97;;;15.48;90.32
75298;BME280;63896;45.990;18.688;2023-05-21T05:11:33;100695.63;;;15.66;89.49
75298;BME280;63896;45.990;18.688;2023-05-21T05:14:36;100689.25;;;16.00;86.96
75298;BME280;63896;45.990;18.688;2023-05-21T05:17:39;100694.97;;;16.37;85.56
75298;BME280;63896;45.990;18.688;2023-05-21T05:20:41;100702.41;;;16.68;84.07
75298;BME280;63896;45.990;18.688;2023-05-21T05:23:45;100704.56;;;16.88;82.46
75298;BME280;63896;45.990;18.688;2023-05-21T05:26:47;100710.31;;;16.97;81.04
75298;BME280;63896;45.990;18.688;2023-05-21T05:29:50;100705.94;;;17.34;80.73
75298;BME280;63896;45.990;18.688;2023-05-21T05:32:54;100707.94;;;17.44;78.42
75298;BME280;63896;45.990;18.688;2023-05-21T05:35:58;100700.69;;;17.66;78.41
75298;BME280;63896;45.990;18.688;2023-05-21T05:39:01;100700.72;;;17.98;77.91
75298;BME280;63896;45.990;18.688;2023-05-21T05:42:04;100697.63;;;18.11;77.13
75298;BME280;63896;45.990;18.688;2023-05-21T05:45:07;100706.31;;;18.55;76.67
75298;BME280;63896;45.990;18.688;2023-05-21T05:48:11;100712.72;;;18.91;75.17
75298;BME280;63896;45.990;18.688;2023-05-21T05:51:14;100714.88;;;18.94;74.87
75298;BME280;63896;45.990;18.688;2023-05-21T05:54:19;100705.56;;;19.17;73.64
75298;BME280;63896;45.990;18.688;2023-05-21T05:57:22;100719.34;;;18.78;72.33
75298;BME280;63896;45.990;18.688;2023-05-21T06:00:53;100717.78;;;18.82;72.77
75298;BME280;63896;45.990;18.688;2023-05-21T06:04:44;100721.59;;;18.96;73.10
75298;BME280;63896;45.990;18.688;2023-05-21T06:07:48;100722.84;;;19.36;72.17
75298;BME280;63896;45.990;18.688;2023-05-21T06:10:51;100721.91;;;19.57;70.67
75298;BME280;63896;45.990;18.688;2023-05-21T06:13:54;100725.94;;;19.70;69.60
75298;BME280;63896;45.990;18.688;2023-05-21T06:16:57;100726.69;;;19.45;70.66
75298;BME280;63896;45.990;18.688;2023-05-21T06:20:01;100732.53;;;19.32;71.17
75298;BME280;63896;45.990;18.688;2023-05-21T06:23:04;100723.41;;;19.33;72.54
75298;BME280;63896;45.990;18.688;2023-05-21T06:26:08;100719.88;;;19.32;71.47
75298;BME280;63896;45.990;18.688;2023-05-21T06:29:11;100722.50;;;19.07;72.06
75298;BME280;63896;45.990;18.688;2023-05-21T06:32:17;100722.72;;;19.06;73.10
75298;BME280;63896;45.990;18.688;2023-05-21T06:35:19;100718.25;;;19.31;72.75
75298;BME280;63896;45.990;18.688;2023-05-21T06:38:23;100715.06;;;19.34;72.69
75298;BME280;63896;45.990;18.688;2023-05-21T06:41:26;100719.72;;;19.59;73.29
75298;BME280;63896;45.990;18.688;2023-05-21T06:44:33;100713.72;;;19.37;73.77
75298;BME280;63896;45.990;18.688;2023-05-21T06:47:47;100708.47;;;19.72;72.74
75298;BME280;63896;45.990;18.688;2023-05-21T06:50:50;100698.53;;;20.03;71.25
75298;BME280;63896;45.990;18.688;2023-05-21T06:53:53;100687.59;;;21.19;68.08
75298;BME280;63896;45.990;18.688;2023-05-21T06:56:56;100681.47;;;21.97;65.99
75298;BME280;63896;45.990;18.688;2023-05-21T06:59:59;100670.44;;;21.83;62.39
75298;BME280;63896;45.990;18.688;2023-05-21T07:03:05;100677.13;;;21.57;61.89
75298;BME280;63896;45.990;18.688;2023-05-21T07:06:08;100681.09;;;22.37;59.09
75298;BME280;63896;45.990;18.688;2023-05-21T07:09:11;100686.66;;;22.51;57.56
75298;BME280;63896;45.990;18.688;2023-05-21T07:12:14;100690.88;;;22.62;57.08
75298;BME280;63896;45.990;18.688;2023-05-21T07:15:17;100678.75;;;22.83;57.12
75298;BME280;63896;45.990;18.688;2023-05-21T07:18:20;100694.19;;;23.49;56.35
75298;BME280;63896;45.990;18.688;2023-05-21T07:21:23;100690.75;;;23.81;54.04
75298;BME280;63896;45.990;18.688;2023-05-21T07:24:27;100682.50;;;23.53;53.87
75298;BME280;63896;45.990;18.688;2023-05-21T07:27:30;100678.25;;;23.98;53.49
75298;BME280;63896;45.990;18.688;2023-05-21T07:30:34;100681.16;;;23.69;53.41
75298;BME280;63896;45.990;18.688;2023-05-21T07:33:39;100680.66;;;23.06;55.48
75298;BME280;63896;45.990;18.688;2023-05-21T07:36:44;100680.25;;;23.37;54.67
75298;BME280;63896;45.990;18.688;2023-05-21T07:39:47;100679.19;;;23.56;54.60
75298;BME280;63896;45.990;18.688;2023-05-21T07:42:51;100677.63;;;23.32;54.70
75298;BME280;63896;45.990;18.688;2023-05-21T07:45:56;100677.59;;;23.13;54.30
75298;BME280;63896;45.990;18.688;2023-05-21T07:49:01;100674.53;;;23.43;53.81
75298;BME280;63896;45.990;18.688;2023-05-21T07:52:04;100678.53;;;23.03;56.15
75298;BME280;63896;45.990;18.688;2023-05-21T07:55:08;100666.47;;;24.40;53.02
75298;BME280;63896;45.990;18.688;2023-05-21T07:58:14;100674.16;;;25.06;51.50
75298;BME280;63896;45.990;18.688;2023-05-21T08:01:18;100671.44;;;26.14;48.56
75298;BME280;63896;45.990;18.688;2023-05-21T08:04:20;100667.47;;;27.73;43.98
75298;BME280;63896;45.990;18.688;2023-05-21T08:07:24;100667.28;;;26.78;44.69
75298;BME280;63896;45.990;18.688;2023-05-21T08:10:27;100664.13;;;27.59;43.34
75298;BME280;63896;45.990;18.688;2023-05-21T08:13:30;100656.25;;;28.93;40.47
75298;BME280;63896;45.990;18.688;2023-05-21T08:16:33;100647.53;;;29.50;40.70
75298;BME280;63896;45.990;18.688;2023-05-21T08:19:38;100663.59;;;27.39;43.69
75298;BME280;63896;45.990;18.688;2023-05-21T08:22:41;100650.63;;;28.90;41.35
75298;BME280;63896;45.990;18.688;2023-05-21T08:26:11;100651.09;;;29.83;39.27
75298;BME280;63896;45.990;18.688;2023-05-21T08:29:14;100653.50;;;29.85;39.68
75298;BME280;63896;45.990;18.688;2023-05-21T08:32:17;100651.41;;;30.47;39.07
75298;BME280;63896;45.990;18.688;2023-05-21T08:35:20;100656.69;;;30.77;37.02
75298;BME280;63896;45.990;18.688;2023-05-21T08:38:49;100655.44;;;31.62;35.64
75298;BME280;63896;45.990;18.688;2023-05-21T08:42:08;100651.53;;;30.75;36.66
75298;BME280;63896;45.990;18.688;2023-05-21T08:45:19;100655.88;;;30.76;36.94
75298;BME280;63896;45.990;18.688;2023-05-21T08:48:23;100661.09;;;29.17;38.51
75298;BME280;63896;45.990;18.688;2023-05-21T08:51:27;100652.03;;;30.32;37.53
75298;BME280;63896;45.990;18.688;2023-05-21T08:54:30;100643.59;;;30.25;37.14
75298;BME280;63896;45.990;18.688;2023-05-21T08:57:35;100645.94;;;29.49;37.99
75298;BME280;63896;45.990;18.688;2023-05-21T09:00:39;100639.47;;;31.80;34.56
75298;BME280;63896;45.990;18.688;2023-05-21T09:03:44;100644.38;;;32.62;33.92
75298;BME280;63896;45.990;18.688;2023-05-21T09:06:49;100647.41;;;32.13;33.62
75298;BME280;63896;45.990;18.688;2023-05-21T09:10:06;100639.66;;;32.78;31.73
75298;BME280;63896;45.990;18.688;2023-05-21T09:13:13;100638.25;;;32.68;32.58
75298;BME280;63896;45.990;18.688;2023-05-21T09:16:17;100644.28;;;30.22;36.07
75298;BME280;63896;45.990;18.688;2023-05-21T09:19:20;100649.50;;;31.48;35.33
75298;BME280;63896;45.990;18.688;2023-05-21T09:22:26;100648.41;;;32.52;32.79
75298;BME280;63896;45.990;18.688;2023-05-21T09:25:29;100642.41;;;32.78;33.93
75298;BME280;63896;45.990;18.688;2023-05-21T09:28:38;100639.88;;;31.67;33.40
75298;BME280;63896;45.990;18.688;2023-05-21T09:31:42;100636.28;;;34.38;30.94
75298;BME280;63896;45.990;18.688;2023-05-21T09:34:47;100637.84;;;33.55;28.87
75298;BME280;63896;45.990;18.688;2023-05-21T09:37:52;100637.59;;;34.21;30.08
75298;BME280;63896;45.990;18.688;2023-05-21T09:40:55;100643.44;;;33.78;30.61
75298;BME280;63896;45.990;18.688;2023-05-21T09:44:02;100639.06;;;34.87;29.63
75298;BME280;63896;45.990;18.688;2023-05-21T09:47:07;100635.31;;;34.76;28.51
75298;BME280;63896;45.990;18.688;2023-05-21T09:50:25;100631.31;;;34.70;28.73
75298;BME280;63896;45.990;18.688;2023-05-21T09:53:34;100634.56;;;34.75;28.54
75298;BME280;63896;45.990;18.688;2023-05-21T09:56:38;100631.34;;;33.09;30.58
75298;BME280;63896;45.990;18.688;2023-05-21T09:59:41;100628.88;;;34.19;28.44
75298;BME280;63896;45.990;18.688;2023-05-21T10:02:45;100625.88;;;35.29;26.31
75298;BME280;63896;45.990;18.688;2023-05-21T10:05:51;100620.53;;;35.44;26.48
75298;BME280;63896;45.990;18.688;2023-05-21T10:08:55;100624.53;;;34.90;27.11
75298;BME280;63896;45.990;18.688;2023-05-21T10:11:59;100623.84;;;35.56;26.93
75298;BME280;63896;45.990;18.688;2023-05-21T10:15:03;100621.53;;;36.90;25.09
75298;BME280;63896;45.990;18.688;2023-05-21T10:18:07;100624.00;;;35.37;25.31
75298;BME280;63896;45.990;18.688;2023-05-21T10:21:11;100622.69;;;36.38;25.05
75298;BME280;63896;45.990;18.688;2023-05-21T10:24:15;100617.16;;;36.35;24.93
75298;BME280;63896;45.990;18.688;2023-05-21T10:27:19;100618.13;;;37.07;23.80
75298;BME280;63896;45.990;18.688;2023-05-21T10:30:23;100619.25;;;36.08;25.63
75298;BME280;63896;45.990;18.688;2023-05-21T10:33:26;100604.78;;;36.18;23.83
75298;BME280;63896;45.990;18.688;2023-05-21T10:36:31;100605.84;;;36.54;23.21
75298;BME280;63896;45.990;18.688;2023-05-21T10:39:34;100609.56;;;34.91;25.79
75298;BME280;63896;45.990;18.688;2023-05-21T10:43:16;100606.06;;;36.79;24.82
75298;BME280;63896;45.990;18.688;2023-05-21T10:50:13;100596.69;;;36.46;24.73
75298;BME280;63896;45.990;18.688;2023-05-21T10:53:32;100610.53;;;31.15;31.56
75298;BME280;63896;45.990;18.688;2023-05-21T11:00:41;100594.75;;;34.76;27.28
75298;BME280;63896;45.990;18.688;2023-05-21T11:03:46;100588.66;;;35.16;26.97
75298;BME280;63896;45.990;18.688;2023-05-21T11:06:50;100588.91;;;35.71;25.30
75298;BME280;63896;45.990;18.688;2023-05-21T11:09:53;100593.78;;;36.25;26.15
75298;BME280;63896;45.990;18.688;2023-05-21T11:13:05;100592.41;;;36.08;25.69
75298;BME280;63896;45.990;18.688;2023-05-21T11:16:13;100590.88;;;35.37;28.58
75298;BME280;63896;45.990;18.688;2023-05-21T11:19:16;100585.09;;;35.16;27.95
75298;BME280;63896;45.990;18.688;2023-05-21T11:22:44;100583.22;;;35.94;24.88
75298;BME280;63896;45.990;18.688;2023-05-21T11:26:59;100582.34;;;36.85;23.05
75298;BME280;63896;45.990;18.688;2023-05-21T11:33:16;100573.31;;;36.33;22.56
75298;BME280;63896;45.990;18.688;2023-05-21T11:36:19;100569.22;;;36.64;22.64
75298;BME280;63896;45.990;18.688;2023-05-21T11:39:24;100573.69;;;36.90;22.88
75298;BME280;63896;45.990;18.688;2023-05-21T11:45:31;100573.31;;;36.91;24.34
75298;BME280;63896;45.990;18.688;2023-05-21T11:48:35;100572.06;;;36.27;22.57
75298;BME280;63896;45.990;18.688;2023-05-21T11:51:39;100569.13;;;33.39;26.38
75298;BME280;63896;45.990;18.688;2023-05-21T11:54:46;100559.78;;;32.71;26.94
75298;BME280;63896;45.990;18.688;2023-05-21T11:57:53;100561.75;;;34.57;24.73
75298;BME280;63896;45.990;18.688;2023-05-21T12:00:56;100558.22;;;35.79;22.51
75298;BME280;63896;45.990;18.688;2023-05-21T12:04:03;100556.94;;;32.67;25.65
75298;BME280;63896;45.990;18.688;2023-05-21T12:07:06;100561.94;;;32.30;26.22
75298;BME280;63896;45.990;18.688;2023-05-21T12:10:11;100551.00;;;31.71;27.52
75298;BME280;63896;45.990;18.688;2023-05-21T12:13:14;100546.25;;;34.72;24.57
75298;BME280;63896;45.990;18.688;2023-05-21T12:16:17;100540.16;;;35.15;24.31
75298;BME280;63896;45.990;18.688;2023-05-21T12:19:20;100536.72;;;37.26;20.75
75298;BME280;63896;45.990;18.688;2023-05-21T12:22:25;100534.66;;;37.05;19.95
75298;BME280;63896;45.990;18.688;2023-05-21T12:25:30;100542.47;;;34.57;23.31
75298;BME280;63896;45.990;18.688;2023-05-21T12:28:33;100537.56;;;35.29;22.51
75298;BME280;63896;45.990;18.688;2023-05-21T12:31:49;100532.19;;;35.80;21.53
75298;BME280;63896;45.990;18.688;2023-05-21T12:34:53;100522.28;;;35.06;22.27
75298;BME280;63896;45.990;18.688;2023-05-21T12:37:56;100528.63;;;33.17;24.93
75298;BME280;63896;45.990;18.688;2023-05-21T12:41:03;100517.44;;;33.29;25.99
75298;BME280;63896;45.990;18.688;2023-05-21T12:44:06;100521.44;;;33.74;23.83
75298;BME280;63896;45.990;18.688;2023-05-21T12:47:11;100518.91;;;33.23;25.94
75298;BME280;63896;45.990;18.688;2023-05-21T12:50:14;100517.38;;;34.13;23.96
75298;BME280;63896;45.990;18.688;2023-05-21T12:53:35;100514.00;;;36.20;21.37
75298;BME280;63896;45.990;18.688;2023-05-21T12:56:45;100514.34;;;32.42;24.93
75298;BME280;63896;45.990;18.688;2023-05-21T12:59:52;100505.38;;;32.45;26.51
75298;BME280;63896;45.990;18.688;2023-05-21T13:02:55;100508.06;;;31.79;27.03
75298;BME280;63896;45.990;18.688;2023-05-21T13:06:01;100511.09;;;30.78;27.35
75298;BME280;63896;45.990;18.688;2023-05-21T13:09:04;100492.75;;;33.75;24.70
75298;BME280;63896;45.990;18.688;2023-05-21T13:12:07;100491.28;;;33.39;24.96
75298;BME280;63896;45.990;18.688;2023-05-21T13:15:10;100490.56;;;35.22;22.92
75298;BME280;63896;45.990;18.688;2023-05-21T13:18:13;100479.25;;;34.68;23.02
75298;BME280;63896;45.990;18.688;2023-05-21T13:21:17;100475.03;;;32.57;26.02
75298;BME280;63896;45.990;18.688;2023-05-21T13:24:20;100486.81;;;30.64;29.26
75298;BME280;63896;45.990;18.688;2023-05-21T13:27:23;100480.09;;;29.77;28.71
75298;BME280;63896;45.990;18.688;2023-05-21T13:30:26;100476.19;;;30.75;27.90
75298;BME280;63896;45.990;18.688;2023-05-21T13:33:29;100462.34;;;31.39;25.56
75298;BME280;63896;45.990;18.688;2023-05-21T13:36:33;100465.50;;;31.69;25.54
75298;BME280;63896;45.990;18.688;2023-05-21T13:39:36;100463.38;;;31.19;27.56
75298;BME280;63896;45.990;18.688;2023-05-21T13:42:39;100468.16;;;30.54;29.11
75298;BME280;63896;45.990;18.688;2023-05-21T13:45:42;100457.50;;;31.20;28.87
75298;BME280;63896;45.990;18.688;2023-05-21T13:48:45;100448.91;;;31.06;30.00
75298;BME280;63896;45.990;18.688;2023-05-21T13:51:48;100448.88;;;31.34;29.56
75298;BME280;63896;45.990;18.688;2023-05-21T13:54:51;100445.34;;;30.78;29.24
75298;BME280;63896;45.990;18.688;2023-05-21T13:57:54;100439.28;;;30.85;27.59
75298;BME280;63896;45.990;18.688;2023-05-21T14:00:57;100443.81;;;30.41;28.71
75298;BME280;63896;45.990;18.688;2023-05-21T14:04:00;100448.63;;;29.83;29.22
75298;BME280;63896;45.990;18.688;2023-05-21T14:07:06;100443.59;;;29.61;28.99
75298;BME280;63896;45.990;18.688;2023-05-21T14:10:09;100446.72;;;28.73;32.77
75298;BME280;63896;45.990;18.688;2023-05-21T14:13:13;100446.84;;;29.09;33.25
75298;BME280;63896;45.990;18.688;2023-05-21T14:16:21;100443.25;;;29.50;31.50
75298;BME280;63896;45.990;18.688;2023-05-21T14:19:26;100441.63;;;29.37;31.79
75298;BME280;63896;45.990;18.688;2023-05-21T14:22:31;100435.38;;;29.49;32.40
75298;BME280;63896;45.990;18.688;2023-05-21T14:25:34;100433.91;;;29.18;32.93
75298;BME280;63896;45.990;18.688;2023-05-21T14:28:37;100444.50;;;29.53;32.51
75298;BME280;63896;45.990;18.688;2023-05-21T14:31:40;100427.56;;;30.08;32.33
75298;BME280;63896;45.990;18.688;2023-05-21T14:34:43;100422.16;;;29.18;32.95
75298;BME280;63896;45.990;18.688;2023-05-21T14:37:46;100439.03;;;29.20;32.10
75298;BME280;63896;45.990;18.688;2023-05-21T14:40:49;100435.38;;;28.83;32.70
75298;BME280;63896;45.990;18.688;2023-05-21T14:43:52;100427.25;;;28.74;32.36
75298;BME280;63896;45.990;18.688;2023-05-21T14:46:54;100440.38;;;28.02;34.11
75298;BME280;63896;45.990;18.688;2023-05-21T14:49:57;100434.66;;;27.57;32.37
75298;BME280;63896;45.990;18.688;2023-05-21T14:53:08;100439.25;;;28.03;33.05
75298;BME280;63896;45.990;18.688;2023-05-21T14:56:11;100435.63;;;28.69;33.40
75298;BME280;63896;45.990;18.688;2023-05-21T14:59:14;100437.72;;;28.72;33.93
75298;BME280;63896;45.990;18.688;2023-05-21T15:02:17;100438.44;;;29.14;33.21
75298;BME280;63896;45.990;18.688;2023-05-21T15:05:20;100437.66;;;29.71;30.87
75298;BME280;63896;45.990;18.688;2023-05-21T15:08:23;100430.81;;;28.46;31.42
75298;BME280;63896;45.990;18.688;2023-05-21T15:11:26;100434.75;;;28.77;32.41
75298;BME280;63896;45.990;18.688;2023-05-21T15:14:28;100433.31;;;28.01;31.82
75298;BME280;63896;45.990;18.688;2023-05-21T15:17:31;100424.16;;;28.55;32.90
75298;BME280;63896;45.990;18.688;2023-05-21T15:20:34;100434.88;;;28.39;31.72
75298;BME280;63896;45.990;18.688;2023-05-21T15:23:37;100433.13;;;27.76;31.66
75298;BME280;63896;45.990;18.688;2023-05-21T15:26:40;100432.31;;;27.76;31.81
75298;BME280;63896;45.990;18.688;2023-05-21T15:29:43;100429.69;;;27.41;32.36
75298;BME280;63896;45.990;18.688;2023-05-21T15:32:47;100429.94;;;26.85;32.90
75298;BME280;63896;45.990;18.688;2023-05-21T15:35:50;100439.69;;;26.60;33.65
75298;BME280;63896;45.990;18.688;2023-05-21T15:38:53;100464.47;;;26.33;34.67
75298;BME280;63896;45.990;18.688;2023-05-21T15:41:56;100474.63;;;25.48;40.03
75298;BME280;63896;45.990;18.688;2023-05-21T15:44:59;100469.97;;;24.82;42.40
75298;BME280;63896;45.990;18.688;2023-05-21T15:48:03;100472.97;;;24.17;44.94
75298;BME280;63896;45.990;18.688;2023-05-21T15:51:06;100474.66;;;24.00;44.39
75298;BME280;63896;45.990;18.688;2023-05-21T15:54:09;100461.69;;;23.69;44.83
75298;BME280;63896;45.990;18.688;2023-05-21T15:57:12;100466.06;;;23.19;45.78
75298;BME280;63896;45.990;18.688;2023-05-21T16:00:15;100463.31;;;22.87;47.52
75298;BME280;63896;45.990;18.688;2023-05-21T16:03:18;100471.41;;;22.50;49.25
75298;BME280;63896;45.990;18.688;2023-05-21T16:06:21;100469.72;;;22.35;49.81
75298;BME280;63896;45.990;18.688;2023-05-21T16:09:24;100469.75;;;22.30;50.54
75298;BME280;63896;45.990;18.688;2023-05-21T16:12:27;100468.91;;;22.35;51.03